Time;durP1;ratioP1;P1;durP2;ratioP2;P2;SDS_P1;SDS_P2;PMS_P1;PMS_P2;Temp;Humidity;BMP_temperature;BMP_pressure;BME280_temperature;BME280_humidity;BME280_pressure;Samples;Min_cycle;Max_cycle;Signal;HPM_P1;HPM_P2
2023/05/27 00:00:07;;;;;;;;;;;18.50;66.50;;;;;;5053429;27;87135;-41
2023/05/27 00:02:33;;;;;;;;;;;18.50;66.50;;;;;;5052009;27;88642;-40
2023/05/27 00:04:59;;;;;;;;;;;18.50;66.60;;;;;;5050182;27;87490;-41
2023/05/27 00:07:24;;;;;;;;;;;18.50;66.60;;;;;;5055933;27;87046;-42
2023/05/27 00:09:50;;;;;;;;;;;18.50;66.70;;;;;;5052525;27;89426;-41
2023/05/27 00:12:16;;;;;;;;;;;18.40;66.60;;;;;;5052098;27;88419;-41
2023/05/27 00:14:41;;;;;;;;;;;18.40;66.60;;;;;;5053461;27;87745;-41
2023/05/27 00:17:09;;;;;;;;;;;18.40;66.50;;;;;;5052133;27;87745;-42
2023/05/27 00:19:34;;;;;;;;;;;18.40;66.60;;;;;;5053122;27;87765;-41
2023/05/27 00:22:00;;;;;;;;;;;18.40;66.60;;;;;;5043300;27;88199;-42
2023/05/27 00:24:25;;;;;;;;;;;18.40;66.50;;;;;;5053297;27;88058;-42
2023/05/27 00:26:51;;;;;;;;;;;18.30;66.60;;;;;;5051082;27;87099;-41
2023/05/27 00:29:17;;;;;;;;;;;18.40;66.50;;;;;;5057244;27;89118;-42
2023/05/27 00:31:42;;;;;;;;;;;18.30;66.60;;;;;;5050894;27;87291;-41
2023/05/27 00:34:08;;;;;;;;;;;18.40;66.60;;;;;;5054502;27;87450;-41
2023/05/27 00:36:33;;;;;;;;;;;18.40;66.70;;;;;;5046393;27;88821;-41
2023/05/27 00:39:00;;;;;;;;;;;18.30;66.70;;;;;;5054269;27;87201;-40
2023/05/27 00:41:26;;;;;;;;;;;18.30;67.30;;;;;;5051007;27;87200;-40
2023/05/27 00:43:52;;;;;;;;;;;18.30;66.70;;;;;;5052766;27;89152;-42
2023/05/27 00:46:18;;;;;;;;;;;18.30;66.60;;;;;;5051433;27;87223;-41
2023/05/27 00:48:44;;;;;;;;;;;18.30;66.70;;;;;;5053244;27;87402;-42
2023/05/27 00:51:10;;;;;;;;;;;18.30;66.80;;;;;;5053501;27;87910;-42
2023/05/27 00:53:39;;;;;;;;;;;18.30;66.80;;;;;;5053016;27;87386;-41
2023/05/27 00:56:05;;;;;;;;;;;18.30;66.80;;;;;;5050686;27;89532;-41
2023/05/27 00:58:31;;;;;;;;;;;18.30;66.70;;;;;;5052958;27;87031;-42
2023/05/27 01:00:57;;;;;;;;;;;18.20;67.30;;;;;;5051390;27;87888;-41
2023/05/27 01:03:23;;;;;;;;;;;18.20;66.80;;;;;;5052061;27;89233;-42
2023/05/27 01:05:50;;;;;;;;;;;18.20;66.80;;;;;;5051359;27;86977;-42
2023/05/27 01:08:35;;;;;;;;;;;18.20;66.80;;;;;;5052169;27;87329;-41
2023/05/27 01:11:06;;;;;;;;;;;18.20;66.80;;;;;;5046707;27;88100;-40
2023/05/27 01:13:31;;;;;;;;;;;18.20;66.90;;;;;;5056196;27;87062;-41
2023/05/27 01:15:59;;;;;;;;;;;18.20;66.80;;;;;;5050671;27;87185;-41
2023/05/27 01:18:29;;;;;;;;;;;18.20;66.80;;;;;;5054022;27;86400;-42
2023/05/27 01:20:59;;;;;;;;;;;18.10;66.80;;;;;;5050597;27;87631;-40
2023/05/27 01:23:25;;;;;;;;;;;18.10;66.70;;;;;;5052185;27;88165;-41
2023/05/27 01:25:50;;;;;;;;;;;18.10;66.60;;;;;;5050332;27;88114;-40
2023/05/27 01:28:16;;;;;;;;;;;18.10;66.80;;;;;;5052887;27;89703;-42
2023/05/27 01:30:41;;;;;;;;;;;18.10;66.90;;;;;;5050507;27;88113;-41
2023/05/27 01:33:15;;;;;;;;;;;18.10;66.90;;;;;;5053258;27;87081;-41
2023/05/27 01:35:51;;;;;;;;;;;18.10;66.90;;;;;;5054099;27;87466;-42
2023/05/27 01:38:18;;;;;;;;;;;18.10;66.80;;;;;;5051066;27;87540;-40
2023/05/27 01:40:44;;;;;;;;;;;18.00;66.90;;;;;;5051118;27;86966;-41
2023/05/27 01:43:11;;;;;;;;;;;18.00;66.80;;;;;;5052318;27;88463;-42
2023/05/27 01:45:36;;;;;;;;;;;18.00;66.80;;;;;;5051518;27;87082;-41
2023/05/27 01:48:02;;;;;;;;;;;18.00;66.80;;;;;;5053340;27;87504;-42
2023/05/27 01:50:30;;;;;;;;;;;18.00;67.20;;;;;;5054592;27;88087;-42
2023/05/27 01:52:56;;;;;;;;;;;18.00;66.80;;;;;;5053707;27;87332;-41
2023/05/27 01:55:22;;;;;;;;;;;18.00;66.90;;;;;;5055025;27;87462;-41
2023/05/27 01:57:47;;;;;;;;;;;18.00;66.90;;;;;;5057854;27;89748;-42
2023/05/27 02:00:15;;;;;;;;;;;18.00;66.90;;;;;;5054545;27;87803;-41
2023/05/27 02:02:41;;;;;;;;;;;18.00;66.90;;;;;;5055296;27;89395;-41
2023/05/27 02:05:07;;;;;;;;;;;18.00;67.00;;;;;;5054234;27;87061;-41
2023/05/27 02:07:32;;;;;;;;;;;17.90;66.80;;;;;;5054667;27;87437;-41
2023/05/27 02:09:58;;;;;;;;;;;18.00;66.90;;;;;;5056115;27;88033;-41
2023/05/27 02:12:23;;;;;;;;;;;18.00;66.90;;;;;;5053493;27;87317;-40
2023/05/27 02:14:49;;;;;;;;;;;17.90;66.90;;;;;;5056111;27;87999;-41
2023/05/27 02:17:14;;;;;;;;;;;17.90;67.50;;;;;;5055713;27;88077;-41
2023/05/27 02:19:40;;;;;;;;;;;17.90;66.90;;;;;;5056852;27;87510;-42
2023/05/27 02:22:06;;;;;;;;;;;17.90;67.00;;;;;;5049777;27;88979;-41
2023/05/27 02:24:32;;;;;;;;;;;17.90;66.90;;;;;;5056375;27;87379;-42
2023/05/27 02:26:58;;;;;;;;;;;17.90;67.00;;;;;;5053775;27;87347;-42
2023/05/27 02:29:23;;;;;;;;;;;17.80;67.00;;;;;;5055395;27;88486;-41
2023/05/27 02:31:49;;;;;;;;;;;17.80;67.00;;;;;;5054517;27;86293;-41
2023/05/27 02:34:14;;;;;;;;;;;17.80;67.00;;;;;;5054562;27;87358;-42
2023/05/27 02:36:40;;;;;;;;;;;17.80;66.90;;;;;;5053903;27;87918;-42
2023/05/27 02:39:05;;;;;;;;;;;17.80;67.00;;;;;;5055900;27;88299;-40
2023/05/27 02:41:31;;;;;;;;;;;17.80;66.90;;;;;;5054322;27;88079;-42
2023/05/27 02:43:56;;;;;;;;;;;17.80;66.90;;;;;;5054097;27;87137;-42
2023/05/27 02:46:22;;;;;;;;;;;17.80;67.00;;;;;;5055059;27;87447;-40
2023/05/27 02:48:47;;;;;;;;;;;17.80;66.90;;;;;;5053114;27;88224;-40
2023/05/27 02:51:13;;;;;;;;;;;17.80;66.90;;;;;;5055486;27;87154;-42
2023/05/27 02:53:38;;;;;;;;;;;17.80;67.00;;;;;;5052944;27;87456;-42
2023/05/27 02:56:04;;;;;;;;;;;17.70;67.10;;;;;;5052705;27;88705;-41
2023/05/27 02:58:30;;;;;;;;;;;17.70;67.00;;;;;;5055992;27;87078;-41
2023/05/27 03:00:55;;;;;;;;;;;17.70;67.10;;;;;;5054755;27;87575;-40
2023/05/27 03:03:21;;;;;;;;;;;17.70;67.10;;;;;;5055287;27;88106;-41
2023/05/27 03:05:47;;;;;;;;;;;17.70;67.10;;;;;;5052662;27;88124;-41
2023/05/27 03:08:12;;;;;;;;;;;17.70;67.10;;;;;;5053691;27;89159;-42
2023/05/27 03:10:38;;;;;;;;;;;17.70;67.00;;;;;;5046730;27;87398;-40
2023/05/27 03:13:03;;;;;;;;;;;17.70;67.00;;;;;;5045620;27;87558;-42
2023/05/27 03:15:29;;;;;;;;;;;17.70;67.00;;;;;;5051630;27;88264;-41
2023/05/27 03:17:55;;;;;;;;;;;17.70;67.00;;;;;;5054027;27;87096;-40
2023/05/27 03:20:21;;;;;;;;;;;17.70;67.00;;;;;;5045851;27;89089;-42
2023/05/27 03:22:47;;;;;;;;;;;17.60;67.10;;;;;;5040085;27;89450;-41
2023/05/27 03:25:13;;;;;;;;;;;17.60;67.00;;;;;;5051889;27;87499;-42
2023/05/27 03:27:38;;;;;;;;;;;17.70;67.00;;;;;;5053396;27;89074;-42
2023/05/27 03:30:05;;;;;;;;;;;17.70;67.10;;;;;;5046452;27;87436;-41
2023/05/27 03:32:31;;;;;;;;;;;17.60;67.00;;;;;;5048251;27;89173;-41
2023/05/27 03:34:56;;;;;;;;;;;17.60;67.10;;;;;;5054018;27;87108;-40
2023/05/27 03:37:22;;;;;;;;;;;17.60;67.00;;;;;;5048399;27;87459;-42
2023/05/27 03:39:47;;;;;;;;;;;17.60;67.00;;;;;;5038327;27;87548;-42
2023/05/27 03:42:14;;;;;;;;;;;17.60;67.10;;;;;;5048219;27;89305;-42
2023/05/27 03:44:39;;;;;;;;;;;17.60;67.10;;;;;;5054940;27;86461;-41
2023/05/27 03:47:05;;;;;;;;;;;17.60;67.10;;;;;;5047506;27;88667;-40
2023/05/27 03:49:31;;;;;;;;;;;17.60;67.10;;;;;;5043612;27;87155;-41
2023/05/27 03:51:57;;;;;;;;;;;17.60;67.10;;;;;;5042585;27;88962;-42
2023/05/27 03:54:22;;;;;;;;;;;17.60;67.10;;;;;;5054352;27;88576;-41
2023/05/27 03:56:48;;;;;;;;;;;17.50;67.10;;;;;;5037697;27;87255;-40
2023/05/27 03:59:14;;;;;;;;;;;17.50;67.10;;;;;;5046541;27;88112;-40
2023/05/27 04:01:40;;;;;;;;;;;17.50;67.10;;;;;;5050946;27;88057;-42
2023/05/27 04:04:06;;;;;;;;;;;17.50;67.10;;;;;;5051735;27;87002;-42
2023/05/27 04:06:33;;;;;;;;;;;17.50;67.10;;;;;;5046277;27;88164;-40
2023/05/27 04:08:58;;;;;;;;;;;17.50;67.20;;;;;;5050037;27;86440;-41
2023/05/27 04:11:26;;;;;;;;;;;17.50;67.30;;;;;;5052072;27;87334;-40
2023/05/27 04:13:52;;;;;;;;;;;17.50;67.20;;;;;;5048498;27;88076;-41
2023/05/27 04:16:17;;;;;;;;;;;17.50;67.20;;;;;;5045893;27;90176;-41
2023/05/27 04:18:48;;;;;;;;;;;17.50;67.20;;;;;;5046047;27;88697;-41
2023/05/27 04:21:17;;;;;;;;;;;17.40;67.20;;;;;;5052379;27;89322;-41
2023/05/27 04:23:42;;;;;;;;;;;17.50;67.20;;;;;;5046102;27;87151;-41
2023/05/27 04:26:08;;;;;;;;;;;17.40;67.20;;;;;;5050699;27;87970;-40
2023/05/27 04:28:38;;;;;;;;;;;17.40;67.20;;;;;;5050231;27;87031;-40
2023/05/27 04:31:04;;;;;;;;;;;17.40;67.20;;;;;;5052185;27;88671;-42
2023/05/27 04:33:30;;;;;;;;;;;17.40;67.20;;;;;;5047396;27;87224;-40
2023/05/27 04:35:56;;;;;;;;;;;17.40;67.20;;;;;;5044327;27;88038;-41
2023/05/27 04:38:22;;;;;;;;;;;17.40;67.20;;;;;;5052330;27;88899;-41
2023/05/27 04:40:52;;;;;;;;;;;17.40;67.20;;;;;;5052040;27;89013;-42
2023/05/27 04:43:21;;;;;;;;;;;17.40;67.20;;;;;;5041887;27;87035;-41
2023/05/27 04:45:47;;;;;;;;;;;17.40;67.20;;;;;;5049360;27;87556;-42
2023/05/27 04:48:13;;;;;;;;;;;17.40;67.20;;;;;;5054998;27;89302;-41
2023/05/27 04:50:40;;;;;;;;;;;17.40;67.30;;;;;;5051359;27;87424;-40
2023/05/27 04:53:06;;;;;;;;;;;17.40;67.20;;;;;;5040669;27;87905;-40
2023/05/27 04:55:32;;;;;;;;;;;17.40;67.20;;;;;;5041901;27;87125;-41
2023/05/27 04:57:58;;;;;;;;;;;17.40;67.30;;;;;;5053291;27;87300;-40
2023/05/27 05:00:35;;;;;;;;;;;17.40;67.20;;;;;;5045707;27;88032;-40
2023/05/27 05:03:01;;;;;;;;;;;17.40;67.20;;;;;;5042246;27;87922;-41
2023/05/27 05:05:28;;;;;;;;;;;17.40;67.20;;;;;;5038527;27;88847;-42
2023/05/27 05:07:53;;;;;;;;;;;17.40;67.20;;;;;;5051279;27;87858;-41
2023/05/27 05:10:19;;;;;;;;;;;17.40;67.10;;;;;;5053005;27;87153;-40
2023/05/27 05:12:44;;;;;;;;;;;17.40;67.10;;;;;;5050089;27;88086;-40
2023/05/27 05:15:10;;;;;;;;;;;17.30;67.20;;;;;;5043298;27;88190;-41
2023/05/27 05:17:35;;;;;;;;;;;17.40;67.30;;;;;;5051460;27;87673;-41
2023/05/27 05:20:01;;;;;;;;;;;17.30;67.20;;;;;;5049688;27;88824;-41
2023/05/27 05:22:28;;;;;;;;;;;17.40;67.20;;;;;;5043841;27;87633;-40
2023/05/27 05:24:54;;;;;;;;;;;17.40;67.30;;;;;;5048634;27;87613;-42
2023/05/27 05:27:19;;;;;;;;;;;17.30;67.30;;;;;;5056606;27;88100;-40
2023/05/27 05:29:45;;;;;;;;;;;17.30;67.20;;;;;;5048801;27;88036;-41
2023/05/27 05:32:11;;;;;;;;;;;17.40;67.20;;;;;;5049842;27;88489;-40
2023/05/27 05:34:37;;;;;;;;;;;17.30;67.20;;;;;;5052377;27;88541;-41
2023/05/27 05:37:02;;;;;;;;;;;17.30;67.20;;;;;;5049801;27;87335;-42
2023/05/27 05:39:28;;;;;;;;;;;17.30;67.20;;;;;;5050466;27;88307;-41
2023/05/27 05:41:53;;;;;;;;;;;17.30;67.20;;;;;;5052788;27;87106;-40
2023/05/27 05:44:19;;;;;;;;;;;17.30;67.20;;;;;;5035198;27;91258;-40
2023/05/27 05:46:45;;;;;;;;;;;17.40;67.20;;;;;;5056385;27;89018;-41
2023/05/27 05:49:10;;;;;;;;;;;17.30;67.10;;;;;;5045720;27;87181;-42
2023/05/27 05:51:36;;;;;;;;;;;17.30;67.20;;;;;;5051019;27;88746;-40
2023/05/27 05:54:01;;;;;;;;;;;17.30;67.30;;;;;;5054771;27;89089;-41
2023/05/27 05:56:27;;;;;;;;;;;17.30;67.30;;;;;;5054597;27;88426;-40
2023/05/27 05:58:52;;;;;;;;;;;17.30;67.40;;;;;;5044078;27;89684;-41
2023/05/27 06:01:18;;;;;;;;;;;17.30;67.30;;;;;;5043806;27;87673;-41
2023/05/27 06:03:43;;;;;;;;;;;17.30;67.30;;;;;;5054485;27;87058;-41
2023/05/27 06:06:09;;;;;;;;;;;17.30;67.30;;;;;;5051436;27;88013;-41
2023/05/27 06:08:35;;;;;;;;;;;17.30;67.30;;;;;;5048016;27;87636;-41
2023/05/27 06:11:01;;;;;;;;;;;17.30;67.40;;;;;;5047812;27;87737;-40
2023/05/27 06:13:26;;;;;;;;;;;17.20;67.40;;;;;;5053038;27;88046;-40
2023/05/27 06:15:52;;;;;;;;;;;17.30;67.50;;;;;;5054540;27;87551;-40
2023/05/27 06:18:17;;;;;;;;;;;17.30;67.50;;;;;;5038312;27;90623;-41
2023/05/27 06:20:43;;;;;;;;;;;17.30;67.50;;;;;;5047299;27;87255;-41
2023/05/27 06:23:08;;;;;;;;;;;17.30;67.60;;;;;;5056317;27;87357;-41
2023/05/27 06:25:34;;;;;;;;;;;17.30;67.60;;;;;;5044821;27;87971;-42
2023/05/27 06:28:00;;;;;;;;;;;17.20;67.60;;;;;;5042125;27;88783;-42
2023/05/27 06:30:25;;;;;;;;;;;17.30;67.60;;;;;;5052374;27;87366;-42
2023/05/27 06:32:51;;;;;;;;;;;17.20;67.60;;;;;;5052915;27;89674;-40
2023/05/27 06:35:17;;;;;;;;;;;17.20;67.70;;;;;;5048347;27;88173;-42
2023/05/27 06:37:42;;;;;;;;;;;17.30;67.70;;;;;;5048591;27;87957;-42
2023/05/27 06:40:08;;;;;;;;;;;17.20;67.70;;;;;;5052771;27;87018;-41
2023/05/27 06:42:34;;;;;;;;;;;17.20;67.70;;;;;;5053473;27;87984;-40
2023/05/27 06:44:59;;;;;;;;;;;17.30;67.70;;;;;;5039633;27;88215;-40
2023/05/27 06:47:25;;;;;;;;;;;17.20;67.70;;;;;;5041178;27;88822;-41
2023/05/27 06:49:50;;;;;;;;;;;17.20;67.80;;;;;;5053396;27;88252;-41
2023/05/27 06:52:16;;;;;;;;;;;17.20;67.80;;;;;;5052083;27;88006;-40
2023/05/27 06:54:41;;;;;;;;;;;17.20;67.90;;;;;;5046990;27;87181;-41
2023/05/27 06:57:07;;;;;;;;;;;17.20;67.90;;;;;;5051503;27;87416;-41
2023/05/27 06:59:32;;;;;;;;;;;17.20;67.90;;;;;;5053007;27;86340;-41
2023/05/27 07:01:58;;;;;;;;;;;17.20;67.80;;;;;;5051836;27;87641;-40
2023/05/27 07:04:24;;;;;;;;;;;17.20;67.80;;;;;;5048746;27;89536;-41
2023/05/27 07:06:49;;;;;;;;;;;17.20;67.80;;;;;;5049473;27;88788;-42
2023/05/27 07:09:15;;;;;;;;;;;17.20;68.10;;;;;;5052735;27;88416;-41
2023/05/27 07:11:40;;;;;;;;;;;17.20;67.90;;;;;;5049524;27;88927;-40
2023/05/27 07:14:06;;;;;;;;;;;17.20;67.80;;;;;;5040443;27;88259;-41
2023/05/27 07:16:32;;;;;;;;;;;17.20;67.90;;;;;;5046931;27;87289;-40
2023/05/27 07:18:57;;;;;;;;;;;17.20;67.90;;;;;;5056468;27;87941;-41
2023/05/27 07:21:23;;;;;;;;;;;17.20;68.10;;;;;;5052281;27;88294;-41
2023/05/27 07:23:48;;;;;;;;;;;17.20;68.10;;;;;;5051706;27;87382;-41
2023/05/27 07:26:14;;;;;;;;;;;17.20;68.10;;;;;;5046005;27;87223;-42
2023/05/27 07:28:39;;;;;;;;;;;17.30;68.10;;;;;;5052937;27;87092;-40
2023/05/27 07:31:05;;;;;;;;;;;17.20;68.00;;;;;;5046545;27;88848;-40
2023/05/27 07:33:30;;;;;;;;;;;17.30;68.00;;;;;;5038660;27;87218;-40
2023/05/27 07:35:56;;;;;;;;;;;17.30;68.00;;;;;;5051674;27;87570;-41
2023/05/27 07:38:21;;;;;;;;;;;17.20;68.00;;;;;;5051676;27;88132;-41
2023/05/27 07:40:47;;;;;;;;;;;17.30;68.10;;;;;;5052356;27;87122;-41
2023/05/27 07:43:12;;;;;;;;;;;17.30;68.10;;;;;;5049961;27;88729;-40
2023/05/27 07:45:38;;;;;;;;;;;17.30;68.10;;;;;;5049893;27;87409;-41
2023/05/27 07:48:03;;;;;;;;;;;17.30;68.00;;;;;;5052529;27;87664;-41
2023/05/27 07:50:29;;;;;;;;;;;17.30;68.00;;;;;;5045094;27;88198;-40
2023/05/27 07:52:54;;;;;;;;;;;17.30;68.10;;;;;;5047439;27;87949;-40
2023/05/27 07:55:20;;;;;;;;;;;17.30;68.10;;;;;;5049546;27;88438;-41
2023/05/27 07:57:46;;;;;;;;;;;17.30;68.10;;;;;;5055020;27;87987;-39
2023/05/27 08:00:11;;;;;;;;;;;17.30;68.10;;;;;;5041287;27;87161;-41
2023/05/27 08:02:37;;;;;;;;;;;17.30;68.10;;;;;;5049501;27;87668;-40
2023/05/27 08:05:03;;;;;;;;;;;17.30;68.10;;;;;;5050477;27;87105;-40
2023/05/27 08:07:29;;;;;;;;;;;17.30;68.20;;;;;;5052653;27;88861;-41
2023/05/27 08:09:55;;;;;;;;;;;17.30;68.10;;;;;;5049713;27;87833;-40
2023/05/27 08:12:20;;;;;;;;;;;17.30;68.00;;;;;;5045964;27;86370;-40
2023/05/27 08:14:46;;;;;;;;;;;17.30;68.10;;;;;;5048382;27;87074;-41
2023/05/27 08:17:12;;;;;;;;;;;17.30;68.30;;;;;;5050814;27;89486;-40
2023/05/27 08:19:37;;;;;;;;;;;17.30;68.10;;;;;;5045170;27;88061;-41
2023/05/27 08:22:03;;;;;;;;;;;17.30;68.30;;;;;;5040955;27;88725;-41
2023/05/27 08:24:30;;;;;;;;;;;17.30;68.20;;;;;;5050637;27;87177;-41
2023/05/27 08:26:56;;;;;;;;;;;17.30;68.10;;;;;;5046097;27;87296;-41
2023/05/27 08:29:22;;;;;;;;;;;17.30;68.10;;;;;;5040441;27;88835;-41
2023/05/27 08:31:51;;;;;;;;;;;17.30;68.20;;;;;;5044114;27;87170;-41
2023/05/27 08:34:17;;;;;;;;;;;17.30;68.10;;;;;;5046388;27;87530;-41
2023/05/27 08:36:42;;;;;;;;;;;17.40;68.40;;;;;;5047900;27;87374;-41
2023/05/27 08:39:08;;;;;;;;;;;17.30;68.20;;;;;;5045799;27;87193;-41
2023/05/27 08:41:33;;;;;;;;;;;17.40;68.00;;;;;;5043443;27;87520;-42
2023/05/27 08:43:59;;;;;;;;;;;17.40;68.30;;;;;;5054935;27;89085;-41
2023/05/27 08:46:26;;;;;;;;;;;17.40;68.00;;;;;;5046261;27;90029;-40
2023/05/27 08:48:53;;;;;;;;;;;17.40;68.30;;;;;;5043183;27;88408;-41
2023/05/27 08:51:18;;;;;;;;;;;17.40;68.00;;;;;;5046635;27;87135;-42
2023/05/27 08:53:46;;;;;;;;;;;17.50;68.00;;;;;;5052177;27;87666;-40
2023/05/27 08:56:12;;;;;;;;;;;17.50;68.80;;;;;;5038102;27;89491;-41
2023/05/27 08:58:38;;;;;;;;;;;17.50;68.20;;;;;;5046140;27;87048;-40
2023/05/27 09:01:04;;;;;;;;;;;17.50;68.30;;;;;;5047535;27;86798;-41
2023/05/27 09:03:30;;;;;;;;;;;17.50;68.10;;;;;;5047950;27;87890;-41
2023/05/27 09:05:56;;;;;;;;;;;17.50;68.50;;;;;;5052155;27;87082;-41
2023/05/27 09:08:21;;;;;;;;;;;17.50;69.20;;;;;;5050455;27;90451;-43
2023/05/27 09:10:47;;;;;;;;;;;17.60;69.20;;;;;;5050381;27;87129;-40
2023/05/27 09:13:12;;;;;;;;;;;17.60;69.80;;;;;;5048520;27;87015;-40
2023/05/27 09:15:38;;;;;;;;;;;17.60;70.50;;;;;;5052737;27;88168;-39
2023/05/27 09:18:04;;;;;;;;;;;17.70;70.30;;;;;;5049611;27;87330;-39
2023/05/27 09:20:30;;;;;;;;;;;17.70;69.40;;;;;;5052381;27;87423;-42
2023/05/27 09:22:56;;;;;;;;;;;17.70;68.90;;;;;;5048541;27;87842;-41
2023/05/27 09:25:23;;;;;;;;;;;17.80;68.30;;;;;;5053312;27;86362;-43
2023/05/27 09:27:49;;;;;;;;;;;17.80;69.20;;;;;;5051812;27;87071;-39
2023/05/27 09:30:15;;;;;;;;;;;17.80;68.30;;;;;;5052246;27;87128;-40
2023/05/27 09:32:40;;;;;;;;;;;17.80;69.00;;;;;;5047939;27;88708;-45
2023/05/27 09:35:07;;;;;;;;;;;17.90;68.10;;;;;;5051490;27;88075;-40
2023/05/27 09:37:34;;;;;;;;;;;17.90;67.90;;;;;;5047850;27;87639;-39
2023/05/27 09:40:00;;;;;;;;;;;18.00;68.20;;;;;;5048815;27;88899;-43
2023/05/27 09:42:26;;;;;;;;;;;18.00;68.20;;;;;;5051308;27;89059;-41
2023/05/27 09:44:53;;;;;;;;;;;18.00;68.70;;;;;;5049639;27;87492;-37
2023/05/27 09:47:20;;;;;;;;;;;18.00;68.90;;;;;;5051514;27;87369;-37
2023/05/27 09:49:49;;;;;;;;;;;18.00;68.60;;;;;;5056327;27;87309;-36
2023/05/27 09:52:19;;;;;;;;;;;18.10;70.00;;;;;;5046767;27;88275;-39
2023/05/27 09:54:44;;;;;;;;;;;18.10;69.30;;;;;;5048481;27;89360;-39
2023/05/27 09:57:10;;;;;;;;;;;18.10;68.60;;;;;;5051147;27;88567;-40
2023/05/27 09:59:37;;;;;;;;;;;18.10;68.20;;;;;;5049314;27;87464;-37
2023/05/27 10:02:02;;;;;;;;;;;18.10;68.50;;;;;;5051574;27;88077;-35
2023/05/27 10:04:29;;;;;;;;;;;18.10;69.30;;;;;;5049619;27;87120;-37
2023/05/27 10:06:55;;;;;;;;;;;18.10;69.70;;;;;;5046689;27;89119;-39
2023/05/27 10:09:20;;;;;;;;;;;18.20;68.60;;;;;;5051241;27;87372;-34
2023/05/27 10:11:46;;;;;;;;;;;18.30;68.00;;;;;;5056817;27;87655;-39
2023/05/27 10:14:12;;;;;;;;;;;18.30;67.70;;;;;;5053837;27;87238;-35
2023/05/27 10:16:37;;;;;;;;;;;18.30;68.10;;;;;;5053144;27;87093;-37
2023/05/27 10:19:08;;;;;;;;;;;18.30;68.40;;;;;;5053880;27;87174;-36
2023/05/27 10:21:42;;;;;;;;;;;18.20;67.70;;;;;;5049772;27;88833;-37
2023/05/27 10:24:09;;;;;;;;;;;18.10;67.70;;;;;;5054244;27;87806;-36
2023/05/27 10:26:45;;;;;;;;;;;18.20;67.70;;;;;;5051693;27;87152;-43
2023/05/27 10:29:12;;;;;;;;;;;18.10;67.40;;;;;;5046737;27;89116;-40
2023/05/27 10:31:48;;;;;;;;;;;18.20;66.90;;;;;;5049933;27;87210;-39
2023/05/27 10:34:14;;;;;;;;;;;18.20;67.00;;;;;;5048999;27;89303;-36
2023/05/27 10:36:40;;;;;;;;;;;18.20;67.70;;;;;;5053017;27;87923;-39
2023/05/27 10:39:11;;;;;;;;;;;18.30;68.10;;;;;;5049371;27;87180;-38
2023/05/27 10:41:50;;;;;;;;;;;18.20;67.30;;;;;;5052895;27;88209;-38
2023/05/27 10:44:30;;;;;;;;;;;18.20;67.00;;;;;;5053487;27;87191;-40
2023/05/27 10:47:03;;;;;;;;;;;18.20;66.90;;;;;;5047484;27;88069;-39
2023/05/27 10:49:35;;;;;;;;;;;18.20;67.00;;;;;;5053145;27;87516;-42
2023/05/27 10:52:15;;;;;;;;;;;18.20;67.20;;;;;;5049953;27;87088;-40
2023/05/27 10:54:41;;;;;;;;;;;18.30;67.20;;;;;;5049841;27;88684;-39
2023/05/27 10:57:07;;;;;;;;;;;18.30;67.50;;;;;;5055193;27;87221;-38
2023/05/27 10:59:50;;;;;;;;;;;18.30;66.70;;;;;;5051532;27;87389;-37
2023/05/27 11:02:16;;;;;;;;;;;18.30;67.30;;;;;;5049716;27;88134;-42
2023/05/27 11:04:42;;;;;;;;;;;18.40;67.20;;;;;;5053311;27;86955;-37
2023/05/27 11:07:07;;;;;;;;;;;18.40;66.90;;;;;;5051142;27;88341;-36
2023/05/27 11:09:43;;;;;;;;;;;18.40;67.40;;;;;;5051444;27;87955;-37
2023/05/27 11:12:12;;;;;;;;;;;18.50;67.50;;;;;;5052057;27;88086;-39
2023/05/27 11:14:38;;;;;;;;;;;18.60;67.10;;;;;;5053360;27;88357;-37
2023/05/27 11:17:03;;;;;;;;;;;18.50;67.20;;;;;;5054886;27;88211;-38
2023/05/27 11:19:29;;;;;;;;;;;18.50;66.20;;;;;;5052411;27;87503;-38
2023/05/27 11:21:54;;;;;;;;;;;18.40;66.10;;;;;;5052414;27;88155;-41
2023/05/27 11:24:21;;;;;;;;;;;18.40;66.80;;;;;;5050571;27;87110;-40
2023/05/27 11:26:47;;;;;;;;;;;18.50;67.10;;;;;;5051786;27;87718;-44
2023/05/27 11:29:13;;;;;;;;;;;18.50;66.50;;;;;;5053203;27;88787;-39
2023/05/27 11:31:42;;;;;;;;;;;18.60;66.10;;;;;;5052513;27;87115;-39
2023/05/27 11:34:14;;;;;;;;;;;18.50;66.20;;;;;;5053795;27;87312;-39
2023/05/27 11:36:40;;;;;;;;;;;18.50;66.80;;;;;;5051258;27;90302;-37
2023/05/27 11:39:09;;;;;;;;;;;18.50;66.60;;;;;;5052726;27;87121;-39
2023/05/27 11:41:35;;;;;;;;;;;18.50;66.50;;;;;;5052659;27;88086;-39
2023/05/27 11:44:04;;;;;;;;;;;18.50;66.70;;;;;;5052382;27;87104;-37
2023/05/27 11:46:37;;;;;;;;;;;18.60;66.60;;;;;;5052309;27;87506;-37
2023/05/27 11:49:03;;;;;;;;;;;18.50;66.50;;;;;;5053375;27;88174;-40
2023/05/27 11:51:29;;;;;;;;;;;18.40;66.70;;;;;;5051800;27;87506;-37
2023/05/27 11:53:55;;;;;;;;;;;18.40;67.00;;;;;;5045941;27;88667;-38
2023/05/27 11:56:21;;;;;;;;;;;18.50;66.30;;;;;;5052115;27;89411;-40
2023/05/27 11:58:47;;;;;;;;;;;18.40;66.20;;;;;;5051828;27;87124;-37
2023/05/27 12:01:12;;;;;;;;;;;18.40;65.60;;;;;;5054381;27;88350;-36
2023/05/27 12:03:38;;;;;;;;;;;18.50;65.90;;;;;;5052668;27;87451;-36
2023/05/27 12:06:03;;;;;;;;;;;18.60;65.50;;;;;;5051052;27;88307;-36
2023/05/27 12:08:29;;;;;;;;;;;18.70;65.40;;;;;;5049049;27;87969;-36
2023/05/27 12:10:55;;;;;;;;;;;18.70;65.30;;;;;;5053170;27;87251;-35
2023/05/27 12:13:21;;;;;;;;;;;18.70;65.30;;;;;;5051164;27;87338;-36
2023/05/27 12:15:47;;;;;;;;;;;18.70;65.40;;;;;;5052240;27;89755;-37
2023/05/27 12:18:12;;;;;;;;;;;18.70;65.50;;;;;;5050953;27;86751;-36
2023/05/27 12:20:38;;;;;;;;;;;18.70;65.50;;;;;;5053867;27;87894;-36
2023/05/27 12:23:03;;;;;;;;;;;18.80;65.50;;;;;;5052688;27;88167;-36
2023/05/27 12:25:29;;;;;;;;;;;18.80;65.50;;;;;;5048653;27;88070;-37
2023/05/27 12:27:54;;;;;;;;;;;18.80;65.60;;;;;;5052808;27;87220;-36
2023/05/27 12:30:20;;;;;;;;;;;18.70;65.60;;;;;;5050384;27;87474;-36
2023/05/27 12:32:45;;;;;;;;;;;18.70;65.60;;;;;;5051425;27;87392;-38
2023/05/27 12:35:11;;;;;;;;;;;18.80;65.70;;;;;;5050250;27;88000;-38
2023/05/27 12:37:37;;;;;;;;;;;18.70;65.50;;;;;;5052002;27;87470;-38
2023/05/27 12:40:04;;;;;;;;;;;18.80;65.60;;;;;;5048785;27;87768;-38
2023/05/27 12:42:30;;;;;;;;;;;18.70;65.60;;;;;;5054194;27;88672;-38
2023/05/27 12:44:56;;;;;;;;;;;18.70;65.70;;;;;;5051103;27;88213;-38
2023/05/27 12:47:21;;;;;;;;;;;18.80;65.60;;;;;;5050733;27;88237;-38
2023/05/27 12:49:47;;;;;;;;;;;18.80;65.40;;;;;;5050670;27;88024;-38
2023/05/27 12:52:13;;;;;;;;;;;18.80;65.40;;;;;;5051752;27;88419;-39
2023/05/27 12:54:38;;;;;;;;;;;18.80;65.40;;;;;;5044825;27;89849;-39
2023/05/27 12:57:05;;;;;;;;;;;18.80;65.50;;;;;;5050691;27;86989;-38
2023/05/27 12:59:31;;;;;;;;;;;18.80;65.40;;;;;;5052157;27;87385;-38
2023/05/27 13:01:56;;;;;;;;;;;18.90;65.60;;;;;;5049373;27;88005;-38
2023/05/27 13:04:22;;;;;;;;;;;18.90;65.50;;;;;;5055520;27;87183;-39
2023/05/27 13:06:47;;;;;;;;;;;18.90;65.50;;;;;;5050091;27;87978;-38
2023/05/27 13:09:13;;;;;;;;;;;18.90;65.50;;;;;;5049073;27;87106;-39
2023/05/27 13:11:39;;;;;;;;;;;18.90;65.50;;;;;;5045476;27;88777;-39
2023/05/27 13:14:05;;;;;;;;;;;18.90;65.50;;;;;;5051913;27;90195;-39
2023/05/27 13:16:31;;;;;;;;;;;18.90;65.50;;;;;;5049881;27;87161;-39
2023/05/27 13:18:56;;;;;;;;;;;18.90;65.50;;;;;;5052211;27;87570;-38
2023/05/27 13:21:22;;;;;;;;;;;19.00;65.50;;;;;;5049568;27;87801;-39
2023/05/27 13:23:48;;;;;;;;;;;19.00;65.50;;;;;;5051216;27;87150;-38
2023/05/27 13:26:14;;;;;;;;;;;19.00;65.40;;;;;;5051280;27;87434;-38
2023/05/27 13:28:39;;;;;;;;;;;19.00;65.40;;;;;;5051465;27;87123;-39
2023/05/27 13:31:05;;;;;;;;;;;19.00;65.50;;;;;;5050704;27;87476;-38
2023/05/27 13:33:30;;;;;;;;;;;19.00;65.40;;;;;;5050060;27;89412;-38
2023/05/27 13:35:56;;;;;;;;;;;19.10;65.30;;;;;;5050745;27;87106;-39
2023/05/27 13:38:21;;;;;;;;;;;19.10;65.30;;;;;;5049564;27;87911;-38
2023/05/27 13:40:47;;;;;;;;;;;19.00;65.30;;;;;;5047474;27;88023;-38
2023/05/27 13:43:13;;;;;;;;;;;19.00;65.40;;;;;;5051708;27;87214;-39
2023/05/27 13:45:38;;;;;;;;;;;19.00;65.50;;;;;;5052307;27;88709;-38
2023/05/27 13:48:04;;;;;;;;;;;19.00;65.40;;;;;;5058541;27;87279;-38
2023/05/27 13:50:31;;;;;;;;;;;18.90;65.80;;;;;;5052411;27;89062;-38
2023/05/27 13:52:56;;;;;;;;;;;18.90;65.70;;;;;;5055059;27;89341;-39
2023/05/27 13:55:22;;;;;;;;;;;18.90;65.80;;;;;;5052843;27;86375;-38
2023/05/27 13:57:47;;;;;;;;;;;18.90;66.10;;;;;;5052164;27;87366;-39
2023/05/27 14:00:15;;;;;;;;;;;18.90;66.20;;;;;;5055520;27;88179;-38
2023/05/27 14:02:41;;;;;;;;;;;18.90;66.30;;;;;;5052249;27;88059;-38
2023/05/27 14:05:06;;;;;;;;;;;18.80;66.40;;;;;;5055951;27;88497;-38
2023/05/27 14:07:32;;;;;;;;;;;18.90;66.30;;;;;;5052775;27;89227;-38
2023/05/27 14:09:57;;;;;;;;;;;18.80;66.40;;;;;;5054791;27;87118;-38